Juniyah, Lebanon
Current Conditions -  °F | °C
As of 6:00 PM on Friday 31 Oct 2014 (Local Time) from OLBA Reporting Station
Moderate Rain Moderate Rain  
Wind Chill: 70°   Ceiling: Unl
Heat Index: 70°   Visibility: 5mi
Dew Point: 61°   Wind: 15mph
Humidity: 73%   Direction: 210°SSW
Pressure: 29.91"   Gusts: NA
Location:  33.97°N, 35.63°E
Report Text: OLBA 311500Z 21013KT 8000 RA FEW020CB FEW023 SCT080 21/16 Q1013
Loading
Personal Weather Stations






























Interactive Weather Map
Tropical Storm Tracking
New forecast layout! Learn more

10-Day Weather Forecast

Advertisements
Track Severe Weather on mobile